sensor_id;sensor_type;location;lat;lon;timestamp;P1;durP1;ratioP1;P2;durP2;ratioP2
26062;SDS011;13837;48.562;12.108;2022-08-19T00:01:49;24.35;;;21.40;;
26062;SDS011;13837;48.562;12.108;2022-08-19T00:04:17;24.83;;;21.52;;
26062;SDS011;13837;48.562;12.108;2022-08-19T00:06:46;24.77;;;22.13;;
26062;SDS011;13837;48.562;12.108;2022-08-19T00:09:13;25.10;;;20.95;;
26062;SDS011;13837;48.562;12.108;2022-08-19T00:11:42;23.00;;;20.60;;
26062;SDS011;13837;48.562;12.108;2022-08-19T00:14:09;24.10;;;21.38;;
26062;SDS011;13837;48.562;12.108;2022-08-19T00:16:37;26.30;;;22.75;;
26062;SDS011;13837;48.562;12.108;2022-08-19T00:19:03;28.20;;;23.63;;
26062;SDS011;13837;48.562;12.108;2022-08-19T00:21:29;27.90;;;23.55;;
26062;SDS011;13837;48.562;12.108;2022-08-19T00:23:55;26.60;;;23.67;;
26062;SDS011;13837;48.562;12.108;2022-08-19T00:26:26;26.05;;;23.35;;
26062;SDS011;13837;48.562;12.108;2022-08-19T00:28:53;28.25;;;23.98;;
26062;SDS011;13837;48.562;12.108;2022-08-19T00:31:19;30.27;;;25.67;;
26062;SDS011;13837;48.562;12.108;2022-08-19T00:33:45;27.92;;;23.42;;
26062;SDS011;13837;48.562;12.108;2022-08-19T00:36:12;29.35;;;25.67;;
26062;SDS011;13837;48.562;12.108;2022-08-19T00:38:38;28.80;;;24.23;;
26062;SDS011;13837;48.562;12.108;2022-08-19T00:41:09;28.63;;;24.60;;
26062;SDS011;13837;48.562;12.108;2022-08-19T00:43:37;29.15;;;24.13;;
26062;SDS011;13837;48.562;12.108;2022-08-19T00:46:04;26.83;;;23.92;;
26062;SDS011;13837;48.562;12.108;2022-08-19T00:48:30;27.58;;;22.85;;
26062;SDS011;13837;48.562;12.108;2022-08-19T00:50:57;29.85;;;24.60;;
26062;SDS011;13837;48.562;12.108;2022-08-19T00:53:24;28.55;;;25.45;;
26062;SDS011;13837;48.562;12.108;2022-08-19T00:55:53;27.08;;;23.75;;
26062;SDS011;13837;48.562;12.108;2022-08-19T00:58:22;29.15;;;24.33;;
26062;SDS011;13837;48.562;12.108;2022-08-19T01:00:52;28.85;;;24.20;;
26062;SDS011;13837;48.562;12.108;2022-08-19T01:03:19;31.67;;;25.70;;
26062;SDS011;13837;48.562;12.108;2022-08-19T01:05:46;28.30;;;24.35;;
26062;SDS011;13837;48.562;12.108;2022-08-19T01:08:14;25.92;;;23.02;;
26062;SDS011;13837;48.562;12.108;2022-08-19T01:10:42;29.52;;;24.27;;
26062;SDS011;13837;48.562;12.108;2022-08-19T01:13:13;28.42;;;25.13;;
26062;SDS011;13837;48.562;12.108;2022-08-19T01:15:42;29.50;;;25.58;;
26062;SDS011;13837;48.562;12.108;2022-08-19T01:18:12;31.25;;;26.90;;
26062;SDS011;13837;48.562;12.108;2022-08-19T01:20:40;33.38;;;26.95;;
26062;SDS011;13837;48.562;12.108;2022-08-19T01:23:06;31.40;;;26.90;;
26062;SDS011;13837;48.562;12.108;2022-08-19T01:25:43;28.88;;;25.75;;
26062;SDS011;13837;48.562;12.108;2022-08-19T01:28:16;28.42;;;24.77;;
26062;SDS011;13837;48.562;12.108;2022-08-19T01:30:43;31.70;;;26.75;;
26062;SDS011;13837;48.562;12.108;2022-08-19T01:33:09;31.55;;;27.40;;
26062;SDS011;13837;48.562;12.108;2022-08-19T01:35:35;32.08;;;26.92;;
26062;SDS011;13837;48.562;12.108;2022-08-19T01:38:05;33.88;;;28.10;;
26062;SDS011;13837;48.562;12.108;2022-08-19T01:40:33;33.08;;;28.15;;
26062;SDS011;13837;48.562;12.108;2022-08-19T01:43:01;33.40;;;27.00;;
26062;SDS011;13837;48.562;12.108;2022-08-19T01:45:29;34.78;;;27.25;;
26062;SDS011;13837;48.562;12.108;2022-08-19T01:47:57;32.08;;;26.98;;
26062;SDS011;13837;48.562;12.108;2022-08-19T01:50:23;34.53;;;27.25;;
26062;SDS011;13837;48.562;12.108;2022-08-19T01:52:49;31.48;;;27.17;;
26062;SDS011;13837;48.562;12.108;2022-08-19T01:55:16;32.08;;;27.65;;
26062;SDS011;13837;48.562;12.108;2022-08-19T01:57:44;31.95;;;26.33;;
26062;SDS011;13837;48.562;12.108;2022-08-19T02:00:13;24.25;;;21.17;;
26062;SDS011;13837;48.562;12.108;2022-08-19T02:02:42;21.98;;;19.38;;
26062;SDS011;13837;48.562;12.108;2022-08-19T02:05:08;22.40;;;18.65;;
26062;SDS011;13837;48.562;12.108;2022-08-19T02:07:35;20.58;;;18.15;;
26062;SDS011;13837;48.562;12.108;2022-08-19T02:10:05;20.95;;;16.92;;
26062;SDS011;13837;48.562;12.108;2022-08-19T02:12:32;21.58;;;18.70;;
26062;SDS011;13837;48.562;12.108;2022-08-19T02:14:58;20.83;;;17.92;;
26062;SDS011;13837;48.562;12.108;2022-08-19T02:17:26;21.00;;;18.52;;
26062;SDS011;13837;48.562;12.108;2022-08-19T02:19:54;20.05;;;16.75;;
26062;SDS011;13837;48.562;12.108;2022-08-19T02:22:20;21.08;;;18.17;;
26062;SDS011;13837;48.562;12.108;2022-08-19T02:24:46;20.65;;;17.75;;
26062;SDS011;13837;48.562;12.108;2022-08-19T02:27:13;19.95;;;17.77;;
26062;SDS011;13837;48.562;12.108;2022-08-19T02:29:39;20.48;;;18.33;;
26062;SDS011;13837;48.562;12.108;2022-08-19T02:32:06;22.40;;;18.70;;
26062;SDS011;13837;48.562;12.108;2022-08-19T02:34:32;20.65;;;17.77;;
26062;SDS011;13837;48.562;12.108;2022-08-19T02:37:00;20.17;;;18.00;;
26062;SDS011;13837;48.562;12.108;2022-08-19T02:39:25;22.85;;;20.35;;
26062;SDS011;13837;48.562;12.108;2022-08-19T02:41:51;20.83;;;18.63;;
26062;SDS011;13837;48.562;12.108;2022-08-19T02:44:17;24.23;;;20.00;;
26062;SDS011;13837;48.562;12.108;2022-08-19T02:46:44;23.90;;;20.17;;
26062;SDS011;13837;48.562;12.108;2022-08-19T02:49:11;22.23;;;19.85;;
26062;SDS011;13837;48.562;12.108;2022-08-19T02:51:39;22.95;;;20.38;;
26062;SDS011;13837;48.562;12.108;2022-08-19T02:54:07;24.75;;;21.48;;
26062;SDS011;13837;48.562;12.108;2022-08-19T02:56:35;27.67;;;24.67;;
26062;SDS011;13837;48.562;12.108;2022-08-19T02:59:02;28.17;;;22.73;;
26062;SDS011;13837;48.562;12.108;2022-08-19T03:01:33;25.48;;;22.35;;
26062;SDS011;13837;48.562;12.108;2022-08-19T03:04:00;26.15;;;22.08;;
26062;SDS011;13837;48.562;12.108;2022-08-19T03:06:27;25.70;;;21.50;;
26062;SDS011;13837;48.562;12.108;2022-08-19T03:08:54;25.83;;;22.13;;
26062;SDS011;13837;48.562;12.108;2022-08-19T03:11:21;27.33;;;22.40;;
26062;SDS011;13837;48.562;12.108;2022-08-19T03:13:48;26.95;;;23.02;;
26062;SDS011;13837;48.562;12.108;2022-08-19T03:16:16;26.83;;;21.42;;
26062;SDS011;13837;48.562;12.108;2022-08-19T03:18:43;25.33;;;21.92;;
26062;SDS011;13837;48.562;12.108;2022-08-19T03:21:09;25.77;;;21.60;;
26062;SDS011;13837;48.562;12.108;2022-08-19T03:23:39;25.13;;;21.85;;
26062;SDS011;13837;48.562;12.108;2022-08-19T03:26:05;24.05;;;19.63;;
26062;SDS011;13837;48.562;12.108;2022-08-19T03:28:31;25.98;;;20.75;;
26062;SDS011;13837;48.562;12.108;2022-08-19T03:30:58;28.73;;;23.25;;
26062;SDS011;13837;48.562;12.108;2022-08-19T03:33:26;30.40;;;22.35;;
26062;SDS011;13837;48.562;12.108;2022-08-19T03:36:03;28.48;;;24.83;;
26062;SDS011;13837;48.562;12.108;2022-08-19T03:38:29;28.25;;;23.60;;
26062;SDS011;13837;48.562;12.108;2022-08-19T03:40:55;27.70;;;22.95;;
26062;SDS011;13837;48.562;12.108;2022-08-19T03:43:21;29.40;;;25.17;;
26062;SDS011;13837;48.562;12.108;2022-08-19T03:45:46;30.40;;;23.95;;
26062;SDS011;13837;48.562;12.108;2022-08-19T03:48:14;31.65;;;25.38;;
26062;SDS011;13837;48.562;12.108;2022-08-19T03:50:41;31.25;;;24.13;;
26062;SDS011;13837;48.562;12.108;2022-08-19T03:53:07;34.03;;;25.17;;
26062;SDS011;13837;48.562;12.108;2022-08-19T03:55:34;34.33;;;24.42;;
26062;SDS011;13837;48.562;12.108;2022-08-19T03:58:05;28.08;;;23.75;;
26062;SDS011;13837;48.562;12.108;2022-08-19T04:00:31;28.52;;;23.38;;
26062;SDS011;13837;48.562;12.108;2022-08-19T04:02:58;28.17;;;21.92;;
26062;SDS011;13837;48.562;12.108;2022-08-19T04:05:26;24.92;;;21.15;;
26062;SDS011;13837;48.562;12.108;2022-08-19T04:07:53;24.50;;;19.70;;
26062;SDS011;13837;48.562;12.108;2022-08-19T04:10:22;21.27;;;19.05;;
26062;SDS011;13837;48.562;12.108;2022-08-19T04:12:49;18.90;;;16.90;;
26062;SDS011;13837;48.562;12.108;2022-08-19T04:15:15;17.92;;;16.02;;
26062;SDS011;13837;48.562;12.108;2022-08-19T04:17:41;19.80;;;15.35;;
26062;SDS011;13837;48.562;12.108;2022-08-19T04:20:07;15.65;;;13.90;;
26062;SDS011;13837;48.562;12.108;2022-08-19T04:22:33;15.82;;;14.02;;
26062;SDS011;13837;48.562;12.108;2022-08-19T04:24:58;17.38;;;15.05;;
26062;SDS011;13837;48.562;12.108;2022-08-19T04:27:24;18.77;;;15.63;;
26062;SDS011;13837;48.562;12.108;2022-08-19T04:29:49;15.65;;;14.00;;
26062;SDS011;13837;48.562;12.108;2022-08-19T04:32:17;17.45;;;14.98;;
26062;SDS011;13837;48.562;12.108;2022-08-19T04:34:43;17.85;;;14.82;;
26062;SDS011;13837;48.562;12.108;2022-08-19T04:37:08;21.77;;;16.15;;
26062;SDS011;13837;48.562;12.108;2022-08-19T04:39:38;19.67;;;15.82;;
26062;SDS011;13837;48.562;12.108;2022-08-19T04:42:22;18.45;;;15.40;;
26062;SDS011;13837;48.562;12.108;2022-08-19T04:45:13;18.17;;;15.75;;
26062;SDS011;13837;48.562;12.108;2022-08-19T04:47:40;19.02;;;14.75;;
26062;SDS011;13837;48.562;12.108;2022-08-19T04:50:07;21.65;;;15.60;;
26062;SDS011;13837;48.562;12.108;2022-08-19T04:52:36;18.10;;;15.07;;
26062;SDS011;13837;48.562;12.108;2022-08-19T04:55:09;17.10;;;13.40;;
26062;SDS011;13837;48.562;12.108;2022-08-19T04:57:36;13.85;;;12.35;;
26062;SDS011;13837;48.562;12.108;2022-08-19T05:00:05;13.55;;;12.15;;
26062;SDS011;13837;48.562;12.108;2022-08-19T05:02:32;16.40;;;13.95;;
26062;SDS011;13837;48.562;12.108;2022-08-19T05:04:58;15.75;;;14.05;;
26062;SDS011;13837;48.562;12.108;2022-08-19T05:07:25;14.75;;;13.25;;
26062;SDS011;13837;48.562;12.108;2022-08-19T05:09:51;15.75;;;13.43;;
26062;SDS011;13837;48.562;12.108;2022-08-19T05:12:17;15.73;;;12.48;;
26062;SDS011;13837;48.562;12.108;2022-08-19T05:14:44;14.77;;;11.88;;
26062;SDS011;13837;48.562;12.108;2022-08-19T05:17:12;14.30;;;12.65;;
26062;SDS011;13837;48.562;12.108;2022-08-19T05:19:38;14.25;;;12.68;;
26062;SDS011;13837;48.562;12.108;2022-08-19T05:22:22;12.05;;;10.85;;
26062;SDS011;13837;48.562;12.108;2022-08-19T05:24:58;14.60;;;12.25;;
26062;SDS011;13837;48.562;12.108;2022-08-19T05:27:24;16.35;;;12.45;;
26062;SDS011;13837;48.562;12.108;2022-08-19T05:29:49;14.57;;;12.15;;
26062;SDS011;13837;48.562;12.108;2022-08-19T05:32:15;19.55;;;14.57;;
26062;SDS011;13837;48.562;12.108;2022-08-19T05:34:41;15.02;;;13.43;;
26062;SDS011;13837;48.562;12.108;2022-08-19T05:37:07;16.85;;;14.02;;
26062;SDS011;13837;48.562;12.108;2022-08-19T05:39:34;17.52;;;15.32;;
26062;SDS011;13837;48.562;12.108;2022-08-19T05:42:03;16.17;;;14.30;;
26062;SDS011;13837;48.562;12.108;2022-08-19T05:44:33;14.73;;;13.30;;
26062;SDS011;13837;48.562;12.108;2022-08-19T05:47:01;14.32;;;12.75;;
26062;SDS011;13837;48.562;12.108;2022-08-19T05:49:29;13.40;;;12.00;;
26062;SDS011;13837;48.562;12.108;2022-08-19T05:51:56;13.77;;;12.35;;
26062;SDS011;13837;48.562;12.108;2022-08-19T05:54:22;13.45;;;12.05;;
26062;SDS011;13837;48.562;12.108;2022-08-19T05:56:49;13.45;;;11.00;;
26062;SDS011;13837;48.562;12.108;2022-08-19T05:59:16;11.67;;;10.47;;
26062;SDS011;13837;48.562;12.108;2022-08-19T06:01:45;11.77;;;10.65;;
26062;SDS011;13837;48.562;12.108;2022-08-19T06:04:12;13.23;;;11.50;;
26062;SDS011;13837;48.562;12.108;2022-08-19T06:06:43;12.85;;;10.65;;
26062;SDS011;13837;48.562;12.108;2022-08-19T06:09:08;12.40;;;11.18;;
26062;SDS011;13837;48.562;12.108;2022-08-19T06:11:39;14.63;;;13.05;;
26062;SDS011;13837;48.562;12.108;2022-08-19T06:14:14;11.27;;;10.27;;
26062;SDS011;13837;48.562;12.108;2022-08-19T06:16:43;12.57;;;11.45;;
26062;SDS011;13837;48.562;12.108;2022-08-19T06:19:11;11.27;;;10.18;;
26062;SDS011;13837;48.562;12.108;2022-08-19T06:21:39;11.02;;;10.02;;
26062;SDS011;13837;48.562;12.108;2022-08-19T06:24:08;12.02;;;10.75;;
26062;SDS011;13837;48.562;12.108;2022-08-19T06:26:37;11.65;;;10.50;;
26062;SDS011;13837;48.562;12.108;2022-08-19T06:29:05;11.05;;;10.05;;
26062;SDS011;13837;48.562;12.108;2022-08-19T06:31:33;11.82;;;10.05;;
26062;SDS011;13837;48.562;12.108;2022-08-19T06:34:01;11.32;;;10.05;;
26062;SDS011;13837;48.562;12.108;2022-08-19T06:36:50;12.38;;;10.93;;
26062;SDS011;13837;48.562;12.108;2022-08-19T06:39:23;11.35;;;10.35;;
26062;SDS011;13837;48.562;12.108;2022-08-19T06:41:51;11.43;;;10.23;;
26062;SDS011;13837;48.562;12.108;2022-08-19T06:44:19;12.05;;;10.77;;
26062;SDS011;13837;48.562;12.108;2022-08-19T06:46:46;11.07;;;10.07;;
26062;SDS011;13837;48.562;12.108;2022-08-19T06:49:14;12.25;;;10.98;;
26062;SDS011;13837;48.562;12.108;2022-08-19T06:51:41;13.15;;;11.50;;
26062;SDS011;13837;48.562;12.108;2022-08-19T06:54:08;11.63;;;10.52;;
26062;SDS011;13837;48.562;12.108;2022-08-19T06:56:35;13.23;;;11.73;;
26062;SDS011;13837;48.562;12.108;2022-08-19T06:59:06;13.80;;;11.55;;
26062;SDS011;13837;48.562;12.108;2022-08-19T07:01:34;13.88;;;10.95;;
26062;SDS011;13837;48.562;12.108;2022-08-19T07:04:03;11.85;;;10.75;;
26062;SDS011;13837;48.562;12.108;2022-08-19T07:06:30;11.80;;;10.60;;
26062;SDS011;13837;48.562;12.108;2022-08-19T07:08:56;12.05;;;10.93;;
26062;SDS011;13837;48.562;12.108;2022-08-19T07:11:23;11.82;;;10.70;;
26062;SDS011;13837;48.562;12.108;2022-08-19T07:13:49;11.15;;;10.05;;
26062;SDS011;13837;48.562;12.108;2022-08-19T07:16:17;12.13;;;10.38;;
26062;SDS011;13837;48.562;12.108;2022-08-19T07:18:50;14.70;;;10.90;;
26062;SDS011;13837;48.562;12.108;2022-08-19T07:21:18;16.90;;;12.98;;
26062;SDS011;13837;48.562;12.108;2022-08-19T07:23:49;13.50;;;12.10;;
26062;SDS011;13837;48.562;12.108;2022-08-19T07:26:21;14.57;;;13.07;;
26062;SDS011;13837;48.562;12.108;2022-08-19T07:28:50;14.13;;;12.32;;
26062;SDS011;13837;48.562;12.108;2022-08-19T07:31:17;15.13;;;12.48;;
26062;SDS011;13837;48.562;12.108;2022-08-19T07:33:45;14.07;;;12.45;;
26062;SDS011;13837;48.562;12.108;2022-08-19T07:36:12;15.02;;;12.30;;
26062;SDS011;13837;48.562;12.108;2022-08-19T07:38:41;17.48;;;14.35;;
26062;SDS011;13837;48.562;12.108;2022-08-19T07:41:09;15.15;;;13.32;;
26062;SDS011;13837;48.562;12.108;2022-08-19T07:43:37;15.75;;;13.05;;
26062;SDS011;13837;48.562;12.108;2022-08-19T07:46:03;16.05;;;13.60;;
26062;SDS011;13837;48.562;12.108;2022-08-19T07:48:32;16.33;;;13.15;;
26062;SDS011;13837;48.562;12.108;2022-08-19T07:50:59;17.88;;;13.75;;
26062;SDS011;13837;48.562;12.108;2022-08-19T07:53:29;18.58;;;14.98;;
26062;SDS011;13837;48.562;12.108;2022-08-19T07:55:56;20.95;;;15.40;;
26062;SDS011;13837;48.562;12.108;2022-08-19T07:58:29;22.10;;;16.02;;
26062;SDS011;13837;48.562;12.108;2022-08-19T08:01:00;21.08;;;16.65;;
26062;SDS011;13837;48.562;12.108;2022-08-19T08:03:27;20.35;;;15.15;;
26062;SDS011;13837;48.562;12.108;2022-08-19T08:06:13;21.45;;;17.63;;
26062;SDS011;13837;48.562;12.108;2022-08-19T08:08:58;21.88;;;15.88;;
26062;SDS011;13837;48.562;12.108;2022-08-19T08:11:40;23.67;;;16.75;;
26062;SDS011;13837;48.562;12.108;2022-08-19T08:14:08;28.83;;;19.42;;
26062;SDS011;13837;48.562;12.108;2022-08-19T08:16:37;32.08;;;21.45;;
26062;SDS011;13837;48.562;12.108;2022-08-19T08:19:04;29.35;;;21.45;;
26062;SDS011;13837;48.562;12.108;2022-08-19T08:21:31;42.63;;;28.80;;
26062;SDS011;13837;48.562;12.108;2022-08-19T08:23:57;41.35;;;29.27;;
26062;SDS011;13837;48.562;12.108;2022-08-19T08:26:23;38.90;;;27.38;;
26062;SDS011;13837;48.562;12.108;2022-08-19T08:28:50;41.35;;;27.52;;
26062;SDS011;13837;48.562;12.108;2022-08-19T08:31:16;42.58;;;29.38;;
26062;SDS011;13837;48.562;12.108;2022-08-19T08:33:44;40.88;;;28.80;;
26062;SDS011;13837;48.562;12.108;2022-08-19T08:36:10;42.15;;;30.00;;
26062;SDS011;13837;48.562;12.108;2022-08-19T08:38:38;44.67;;;30.17;;
26062;SDS011;13837;48.562;12.108;2022-08-19T08:41:13;43.60;;;31.13;;
26062;SDS011;13837;48.562;12.108;2022-08-19T08:43:48;45.22;;;31.23;;
26062;SDS011;13837;48.562;12.108;2022-08-19T08:51:37;47.95;;;33.33;;
26062;SDS011;13837;48.562;12.108;2022-08-19T08:54:07;53.20;;;35.13;;
26062;SDS011;13837;48.562;12.108;2022-08-19T08:56:38;56.53;;;36.22;;
26062;SDS011;13837;48.562;12.108;2022-08-19T08:59:07;51.55;;;34.20;;
26062;SDS011;13837;48.562;12.108;2022-08-19T09:01:58;51.38;;;34.28;;
26062;SDS011;13837;48.562;12.108;2022-08-19T09:04:24;51.70;;;34.25;;
26062;SDS011;13837;48.562;12.108;2022-08-19T09:12:02;45.00;;;31.73;;
26062;SDS011;13837;48.562;12.108;2022-08-19T09:17:06;44.03;;;30.98;;
26062;SDS011;13837;48.562;12.108;2022-08-19T09:19:35;41.83;;;30.73;;
26062;SDS011;13837;48.562;12.108;2022-08-19T09:22:12;44.70;;;29.38;;
26062;SDS011;13837;48.562;12.108;2022-08-19T09:24:37;37.42;;;27.33;;
26062;SDS011;13837;48.562;12.108;2022-08-19T09:27:04;25.17;;;19.23;;
26062;SDS011;13837;48.562;12.108;2022-08-19T09:29:30;21.08;;;16.38;;
26062;SDS011;13837;48.562;12.108;2022-08-19T09:31:55;19.20;;;16.05;;
26062;SDS011;13837;48.562;12.108;2022-08-19T09:34:21;20.50;;;16.60;;
26062;SDS011;13837;48.562;12.108;2022-08-19T09:36:47;17.70;;;15.10;;
26062;SDS011;13837;48.562;12.108;2022-08-19T09:39:14;20.77;;;17.30;;
26062;SDS011;13837;48.562;12.108;2022-08-19T09:41:40;23.63;;;16.88;;
26062;SDS011;13837;48.562;12.108;2022-08-19T09:44:05;27.70;;;20.00;;
26062;SDS011;13837;48.562;12.108;2022-08-19T09:46:31;28.67;;;20.42;;
26062;SDS011;13837;48.562;12.108;2022-08-19T09:48:58;32.75;;;20.20;;
26062;SDS011;13837;48.562;12.108;2022-08-19T09:51:25;31.55;;;20.38;;
26062;SDS011;13837;48.562;12.108;2022-08-19T09:53:53;29.92;;;21.83;;
26062;SDS011;13837;48.562;12.108;2022-08-19T09:56:20;28.95;;;21.63;;
26062;SDS011;13837;48.562;12.108;2022-08-19T09:58:47;31.15;;;22.23;;
26062;SDS011;13837;48.562;12.108;2022-08-19T10:01:18;29.10;;;20.45;;
26062;SDS011;13837;48.562;12.108;2022-08-19T10:03:49;31.42;;;22.13;;
26062;SDS011;13837;48.562;12.108;2022-08-19T10:06:17;29.63;;;21.02;;
26062;SDS011;13837;48.562;12.108;2022-08-19T10:08:43;27.00;;;20.30;;
26062;SDS011;13837;48.562;12.108;2022-08-19T10:11:10;31.13;;;22.15;;
26062;SDS011;13837;48.562;12.108;2022-08-19T10:13:36;30.48;;;21.77;;
26062;SDS011;13837;48.562;12.108;2022-08-19T10:16:05;27.20;;;20.13;;
26062;SDS011;13837;48.562;12.108;2022-08-19T10:18:32;29.02;;;21.40;;
26062;SDS011;13837;48.562;12.108;2022-08-19T10:21:04;32.10;;;22.40;;
26062;SDS011;13837;48.562;12.108;2022-08-19T10:23:36;34.03;;;24.15;;
26062;SDS011;13837;48.562;12.108;2022-08-19T10:26:04;34.83;;;25.20;;
26062;SDS011;13837;48.562;12.108;2022-08-19T10:28:31;31.52;;;23.73;;
26062;SDS011;13837;48.562;12.108;2022-08-19T10:30:58;34.85;;;24.98;;
26062;SDS011;13837;48.562;12.108;2022-08-19T10:33:28;36.47;;;27.73;;
26062;SDS011;13837;48.562;12.108;2022-08-19T10:36:01;35.60;;;26.13;;
26062;SDS011;13837;48.562;12.108;2022-08-19T10:38:29;33.00;;;22.73;;
26062;SDS011;13837;48.562;12.108;2022-08-19T10:40:56;34.60;;;25.08;;
26062;SDS011;13837;48.562;12.108;2022-08-19T10:43:22;30.75;;;22.88;;
26062;SDS011;13837;48.562;12.108;2022-08-19T10:45:53;29.48;;;22.52;;
26062;SDS011;13837;48.562;12.108;2022-08-19T10:48:26;29.80;;;21.80;;
26062;SDS011;13837;48.562;12.108;2022-08-19T10:50:52;30.75;;;22.02;;
26062;SDS011;13837;48.562;12.108;2022-08-19T10:53:37;32.53;;;23.23;;
26062;SDS011;13837;48.562;12.108;2022-08-19T10:56:02;33.42;;;23.40;;
26062;SDS011;13837;48.562;12.108;2022-08-19T10:58:46;34.03;;;24.33;;
26062;SDS011;13837;48.562;12.108;2022-08-19T11:01:13;37.20;;;25.88;;
26062;SDS011;13837;48.562;12.108;2022-08-19T11:03:38;33.58;;;24.50;;
26062;SDS011;13837;48.562;12.108;2022-08-19T11:06:08;33.38;;;23.70;;
26062;SDS011;13837;48.562;12.108;2022-08-19T11:08:34;35.88;;;25.63;;
26062;SDS011;13837;48.562;12.108;2022-08-19T11:11:03;27.73;;;21.42;;
26062;SDS011;13837;48.562;12.108;2022-08-19T11:13:32;20.23;;;14.77;;
26062;SDS011;13837;48.562;12.108;2022-08-19T11:16:04;17.17;;;14.95;;
26062;SDS011;13837;48.562;12.108;2022-08-19T11:18:39;14.73;;;12.60;;
26062;SDS011;13837;48.562;12.108;2022-08-19T11:21:15;15.27;;;12.75;;
26062;SDS011;13837;48.562;12.108;2022-08-19T11:23:50;12.43;;;11.02;;
26062;SDS011;13837;48.562;12.108;2022-08-19T11:26:19;10.23;;;9.13;;
26062;SDS011;13837;48.562;12.108;2022-08-19T11:28:46;10.00;;;8.40;;
26062;SDS011;13837;48.562;12.108;2022-08-19T11:31:13;11.30;;;10.20;;
26062;SDS011;13837;48.562;12.108;2022-08-19T11:36:06;13.18;;;11.88;;
26062;SDS011;13837;48.562;12.108;2022-08-19T11:38:33;13.85;;;12.45;;
26062;SDS011;13837;48.562;12.108;2022-08-19T11:41:01;15.50;;;12.77;;
26062;SDS011;13837;48.562;12.108;2022-08-19T11:43:30;15.25;;;13.63;;
26062;SDS011;13837;48.562;12.108;2022-08-19T11:45:56;14.23;;;12.73;;
26062;SDS011;13837;48.562;12.108;2022-08-19T11:48:23;15.07;;;13.27;;
26062;SDS011;13837;48.562;12.108;2022-08-19T11:50:51;15.45;;;13.82;;
26062;SDS011;13837;48.562;12.108;2022-08-19T11:53:18;14.32;;;12.80;;
26062;SDS011;13837;48.562;12.108;2022-08-19T11:55:47;14.45;;;12.95;;
26062;SDS011;13837;48.562;12.108;2022-08-19T11:58:14;15.27;;;13.68;;
26062;SDS011;13837;48.562;12.108;2022-08-19T12:00:42;16.25;;;13.73;;
26062;SDS011;13837;48.562;12.108;2022-08-19T12:03:10;15.98;;;14.27;;
26062;SDS011;13837;48.562;12.108;2022-08-19T12:05:37;17.42;;;14.50;;
26062;SDS011;13837;48.562;12.108;2022-08-19T12:08:04;16.65;;;13.60;;
26062;SDS011;13837;48.562;12.108;2022-08-19T12:10:30;14.38;;;12.10;;
26062;SDS011;13837;48.562;12.108;2022-08-19T12:12:55;13.85;;;12.45;;
26062;SDS011;13837;48.562;12.108;2022-08-19T12:15:21;13.45;;;11.45;;
26062;SDS011;13837;48.562;12.108;2022-08-19T12:17:47;13.05;;;11.65;;
26062;SDS011;13837;48.562;12.108;2022-08-19T12:20:12;16.25;;;12.93;;
26062;SDS011;13837;48.562;12.108;2022-08-19T12:22:40;19.20;;;13.57;;
26062;SDS011;13837;48.562;12.108;2022-08-19T12:25:07;17.55;;;14.32;;
26062;SDS011;13837;48.562;12.108;2022-08-19T12:27:34;16.73;;;14.05;;
26062;SDS011;13837;48.562;12.108;2022-08-19T12:30:00;13.70;;;11.82;;
26062;SDS011;13837;48.562;12.108;2022-08-19T12:32:28;16.13;;;12.68;;
26062;SDS011;13837;48.562;12.108;2022-08-19T12:34:54;12.77;;;10.30;;
26062;SDS011;13837;48.562;12.108;2022-08-19T12:37:20;10.98;;;9.43;;
26062;SDS011;13837;48.562;12.108;2022-08-19T12:39:46;15.15;;;11.55;;
26062;SDS011;13837;48.562;12.108;2022-08-19T12:42:13;11.88;;;10.10;;
26062;SDS011;13837;48.562;12.108;2022-08-19T12:44:40;10.82;;;9.13;;
26062;SDS011;13837;48.562;12.108;2022-08-19T12:47:07;14.25;;;12.07;;
26062;SDS011;13837;48.562;12.108;2022-08-19T12:49:34;16.45;;;12.05;;
26062;SDS011;13837;48.562;12.108;2022-08-19T12:52:02;11.30;;;9.15;;
26062;SDS011;13837;48.562;12.108;2022-08-19T12:54:29;11.73;;;10.30;;
26062;SDS011;13837;48.562;12.108;2022-08-19T12:56:56;13.05;;;9.95;;
26062;SDS011;13837;48.562;12.108;2022-08-19T12:59:22;9.32;;;7.60;;
26062;SDS011;13837;48.562;12.108;2022-08-19T13:01:48;7.05;;;6.22;;
26062;SDS011;13837;48.562;12.108;2022-08-19T13:04:14;5.75;;;5.25;;
26062;SDS011;13837;48.562;12.108;2022-08-19T13:06:41;6.10;;;5.50;;
26062;SDS011;13837;48.562;12.108;2022-08-19T13:09:07;7.00;;;6.30;;
26062;SDS011;13837;48.562;12.108;2022-08-19T13:11:33;6.13;;;5.53;;
26062;SDS011;13837;48.562;12.108;2022-08-19T13:14:00;6.32;;;5.72;;
26062;SDS011;13837;48.562;12.108;2022-08-19T13:16:27;7.65;;;6.22;;
26062;SDS011;13837;48.562;12.108;2022-08-19T13:18:53;6.60;;;6.00;;
26062;SDS011;13837;48.562;12.108;2022-08-19T13:21:22;7.20;;;6.50;;
26062;SDS011;13837;48.562;12.108;2022-08-19T13:23:50;6.43;;;5.82;;
26062;SDS011;13837;48.562;12.108;2022-08-19T13:26:16;7.78;;;7.00;;
26062;SDS011;13837;48.562;12.108;2022-08-19T13:28:43;8.98;;;8.05;;
26062;SDS011;13837;48.562;12.108;2022-08-19T13:31:30;12.43;;;10.35;;
26062;SDS011;13837;48.562;12.108;2022-08-19T13:34:17;11.30;;;9.40;;
26062;SDS011;13837;48.562;12.108;2022-08-19T13:36:46;11.77;;;9.15;;
26062;SDS011;13837;48.562;12.108;2022-08-19T13:39:11;11.77;;;8.55;;
26062;SDS011;13837;48.562;12.108;2022-08-19T13:41:37;9.05;;;7.97;;
26062;SDS011;13837;48.562;12.108;2022-08-19T13:44:14;11.45;;;10.02;;
26062;SDS011;13837;48.562;12.108;2022-08-19T13:46:43;10.40;;;9.07;;
26062;SDS011;13837;48.562;12.108;2022-08-19T13:49:11;9.70;;;8.80;;
26062;SDS011;13837;48.562;12.108;2022-08-19T13:51:38;13.25;;;9.65;;
26062;SDS011;13837;48.562;12.108;2022-08-19T13:54:07;11.60;;;10.40;;
26062;SDS011;13837;48.562;12.108;2022-08-19T13:56:34;13.27;;;10.48;;
26062;SDS011;13837;48.562;12.108;2022-08-19T13:59:04;13.80;;;11.45;;
26062;SDS011;13837;48.562;12.108;2022-08-19T14:01:30;14.10;;;11.57;;
26062;SDS011;13837;48.562;12.108;2022-08-19T14:03:56;15.88;;;12.30;;
26062;SDS011;13837;48.562;12.108;2022-08-19T14:06:22;14.55;;;12.90;;
26062;SDS011;13837;48.562;12.108;2022-08-19T14:08:48;12.38;;;11.18;;
26062;SDS011;13837;48.562;12.108;2022-08-19T14:11:13;12.50;;;11.15;;
26062;SDS011;13837;48.562;12.108;2022-08-19T14:13:39;13.65;;;12.25;;
26062;SDS011;13837;48.562;12.108;2022-08-19T14:16:09;16.30;;;13.30;;
26062;SDS011;13837;48.562;12.108;2022-08-19T14:18:36;17.38;;;14.57;;
26062;SDS011;13837;48.562;12.108;2022-08-19T14:21:03;15.63;;;13.95;;
26062;SDS011;13837;48.562;12.108;2022-08-19T14:23:30;16.67;;;13.25;;
26062;SDS011;13837;48.562;12.108;2022-08-19T14:26:03;15.57;;;13.68;;
26062;SDS011;13837;48.562;12.108;2022-08-19T14:28:37;17.70;;;14.80;;
26062;SDS011;13837;48.562;12.108;2022-08-19T14:31:04;16.95;;;14.95;;
26062;SDS011;13837;48.562;12.108;2022-08-19T14:33:30;16.85;;;15.00;;